sensor_id;sensor_type;location;lat;lon;timestamp;pressure;altitude;pressure_sealevel;temperature;humidity
39891;BME280;25564;53.312;9.790;2023-02-01T00:01:09;100497.50;;;5.11;99.80
39891;BME280;25564;53.312;9.790;2023-02-01T00:03:41;100493.97;;;5.10;100.00
39891;BME280;25564;53.312;9.790;2023-02-01T00:06:12;100483.44;;;4.98;99.66
39891;BME280;25564;53.312;9.790;2023-02-01T00:08:43;100488.72;;;5.01;99.75
39891;BME280;25564;53.312;9.790;2023-02-01T00:11:15;100501.88;;;5.07;100.00
39891;BME280;25564;53.312;9.790;2023-02-01T00:13:46;100498.34;;;5.05;100.00
39891;BME280;25564;53.312;9.790;2023-02-01T00:16:23;100492.22;;;5.06;99.82
39891;BME280;25564;53.312;9.790;2023-02-01T00:21:33;100484.34;;;5.09;100.00
39891;BME280;25564;53.312;9.790;2023-02-01T00:24:05;100485.22;;;5.14;99.65
39891;BME280;25564;53.312;9.790;2023-02-01T00:26:42;100483.44;;;5.22;99.72
39891;BME280;25564;53.312;9.790;2023-02-01T00:29:16;100488.69;;;5.22;100.00
39891;BME280;25564;53.312;9.790;2023-02-01T00:31:50;100487.81;;;5.25;100.00
39891;BME280;25564;53.312;9.790;2023-02-01T00:34:21;100479.94;;;5.23;100.00
39891;BME280;25564;53.312;9.790;2023-02-01T00:36:53;100469.41;;;5.20;100.00
39891;BME280;25564;53.312;9.790;2023-02-01T00:39:24;100472.03;;;5.25;100.00
39891;BME280;25564;53.312;9.790;2023-02-01T00:41:55;100472.03;;;5.25;100.00
39891;BME280;25564;53.312;9.790;2023-02-01T00:44:26;100451.91;;;5.15;100.00
39891;BME280;25564;53.312;9.790;2023-02-01T00:46:58;100459.75;;;5.27;100.00
39891;BME280;25564;53.312;9.790;2023-02-01T00:49:30;100474.66;;;5.30;99.94
39891;BME280;25564;53.312;9.790;2023-02-01T00:52:01;100471.16;;;5.32;99.42
39891;BME280;25564;53.312;9.790;2023-02-01T00:54:33;100447.50;;;5.23;100.00
39891;BME280;25564;53.312;9.790;2023-02-01T00:57:04;100465.91;;;5.40;99.83
39891;BME280;25564;53.312;9.790;2023-02-01T00:59:35;100471.16;;;5.46;100.00
39891;BME280;25564;53.312;9.790;2023-02-01T01:02:07;100479.03;;;5.50;100.00
39891;BME280;25564;53.312;9.790;2023-02-01T01:04:38;100473.78;;;5.53;100.00
39891;BME280;25564;53.312;9.790;2023-02-01T01:07:09;100465.88;;;5.55;100.00
39891;BME280;25564;53.312;9.790;2023-02-01T01:09:40;100474.66;;;5.54;100.00
39891;BME280;25564;53.312;9.790;2023-02-01T01:12:12;100448.34;;;5.42;99.99
39891;BME280;25564;53.312;9.790;2023-02-01T01:14:43;100469.41;;;5.51;99.71
39891;BME280;25564;53.312;9.790;2023-02-01T01:17:16;100467.66;;;5.50;99.63
39891;BME280;25564;53.312;9.790;2023-02-01T01:19:47;100467.66;;;5.50;99.83
39891;BME280;25564;53.312;9.790;2023-02-01T01:22:18;100486.06;;;5.51;100.00
39891;BME280;25564;53.312;9.790;2023-02-01T01:24:50;100470.28;;;5.50;100.00
39891;BME280;25564;53.312;9.790;2023-02-01T01:27:21;100465.88;;;5.52;99.86
39891;BME280;25564;53.312;9.790;2023-02-01T01:29:55;100463.25;;;5.56;100.00
39891;BME280;25564;53.312;9.790;2023-02-01T01:32:26;100423.81;;;5.37;100.00
39891;BME280;25564;53.312;9.790;2023-02-01T01:34:57;100458.84;;;5.60;100.00
39891;BME280;25564;53.312;9.790;2023-02-01T01:37:28;100437.81;;;5.51;100.00
39891;BME280;25564;53.312;9.790;2023-02-01T01:40:00;100406.25;;;5.33;100.00
39891;BME280;25564;53.312;9.790;2023-02-01T01:42:37;100417.63;;;5.53;100.00
39891;BME280;25564;53.312;9.790;2023-02-01T01:47:57;100426.41;;;5.61;100.00
39891;BME280;25564;53.312;9.790;2023-02-01T01:50:33;100404.47;;;5.50;100.00
39891;BME280;25564;53.312;9.790;2023-02-01T01:53:08;100421.13;;;5.56;100.00
39891;BME280;25564;53.312;9.790;2023-02-01T01:55:43;100436.06;;;5.56;100.00
39891;BME280;25564;53.312;9.790;2023-02-01T01:58:18;100416.75;;;5.49;100.00
39891;BME280;25564;53.312;9.790;2023-02-01T02:00:50;100419.38;;;5.54;100.00
39891;BME280;25564;53.312;9.790;2023-02-01T02:03:24;100420.25;;;5.65;100.00
39891;BME280;25564;53.312;9.790;2023-02-01T02:05:58;100423.75;;;5.67;100.00
39891;BME280;25564;53.312;9.790;2023-02-01T02:08:30;100412.34;;;5.68;100.00
39891;BME280;25564;53.312;9.790;2023-02-01T02:11:02;100412.34;;;5.71;100.00
39891;BME280;25564;53.312;9.790;2023-02-01T02:13:38;100412.31;;;5.73;100.00
39891;BME280;25564;53.312;9.790;2023-02-01T02:16:32;100395.66;;;5.74;100.00
39891;BME280;25564;53.312;9.790;2023-02-01T02:31:10;100390.41;;;5.68;100.00
39891;BME280;25564;53.312;9.790;2023-02-01T02:34:02;100375.50;;;5.64;100.00
39891;BME280;25564;53.312;9.790;2023-02-01T02:39:38;100363.16;;;5.78;100.00
39891;BME280;25564;53.312;9.790;2023-02-01T02:42:25;100365.78;;;5.79;100.00
39891;BME280;25564;53.312;9.790;2023-02-01T02:45:28;100355.25;;;5.79;100.00
39891;BME280;25564;53.312;9.790;2023-02-01T02:48:29;100356.13;;;5.83;100.00
39891;BME280;25564;53.312;9.790;2023-02-01T02:51:08;100354.38;;;5.82;100.00
39891;BME280;25564;53.312;9.790;2023-02-01T02:54:05;100338.56;;;5.83;100.00
39891;BME280;25564;53.312;9.790;2023-02-01T02:56:58;100321.03;;;5.76;100.00
39891;BME280;25564;53.312;9.790;2023-02-01T02:59:50;100329.78;;;5.87;100.00
39891;BME280;25564;53.312;9.790;2023-02-01T03:02:40;100343.84;;;5.89;100.00
39891;BME280;25564;53.312;9.790;2023-02-01T03:05:36;100337.69;;;5.87;100.00
39891;BME280;25564;53.312;9.790;2023-02-01T03:08:18;100323.69;;;5.76;100.00
39891;BME280;25564;53.312;9.790;2023-02-01T03:11:01;100314.97;;;5.62;100.00
39891;BME280;25564;53.312;9.790;2023-02-01T03:13:57;100273.88;;;5.26;100.00
39891;BME280;25564;53.312;9.790;2023-02-01T03:16:36;100323.81;;;5.40;100.00
39891;BME280;25564;53.312;9.790;2023-02-01T03:19:25;100305.47;;;5.18;100.00
39891;BME280;25564;53.312;9.790;2023-02-01T03:22:04;100322.94;;;5.32;100.00
39891;BME280;25564;53.312;9.790;2023-02-01T03:24:57;100358.94;;;5.22;100.00
39891;BME280;25564;53.312;9.790;2023-02-01T03:27:35;100356.34;;;5.01;100.00
39891;BME280;25564;53.312;9.790;2023-02-01T03:30:19;100349.34;;;4.78;100.00
39891;BME280;25564;53.312;9.790;2023-02-01T03:32:56;100356.34;;;4.44;99.71
39891;BME280;25564;53.312;9.790;2023-02-01T03:38:44;100327.38;;;4.05;100.00
39891;BME280;25564;53.312;9.790;2023-02-01T03:44:18;100306.34;;;3.89;100.00
39891;BME280;25564;53.312;9.790;2023-02-01T03:46:57;100278.31;;;3.75;100.00
39891;BME280;25564;53.312;9.790;2023-02-01T03:49:42;100283.56;;;3.79;100.00
39891;BME280;25564;53.312;9.790;2023-02-01T03:52:17;100296.72;;;3.84;100.00
39891;BME280;25564;53.312;9.790;2023-02-01T03:54:52;100298.44;;;3.83;100.00
39891;BME280;25564;53.312;9.790;2023-02-01T03:57:29;100288.84;;;3.85;100.00
39891;BME280;25564;53.312;9.790;2023-02-01T04:00:15;100285.34;;;3.89;100.00
39891;BME280;25564;53.312;9.790;2023-02-01T04:02:48;100288.84;;;3.91;100.00
39891;BME280;25564;53.312;9.790;2023-02-01T04:05:20;100281.00;;;3.96;100.00
39891;BME280;25564;53.312;9.790;2023-02-01T04:07:52;100288.88;;;4.01;100.00
39891;BME280;25564;53.312;9.790;2023-02-01T04:10:25;100274.88;;;4.05;100.00
39891;BME280;25564;53.312;9.790;2023-02-01T04:12:58;100277.53;;;4.11;100.00
39891;BME280;25564;53.312;9.790;2023-02-01T04:15:29;100284.50;;;4.18;100.00
39891;BME280;25564;53.312;9.790;2023-02-01T04:18:01;100274.88;;;4.20;100.00
39891;BME280;25564;53.312;9.790;2023-02-01T04:20:32;100273.13;;;4.19;100.00
39891;BME280;25564;53.312;9.790;2023-02-01T04:23:04;100289.75;;;4.21;100.00
39891;BME280;25564;53.312;9.790;2023-02-01T04:25:35;100260.88;;;4.06;100.00
39891;BME280;25564;53.312;9.790;2023-02-01T04:28:06;100280.13;;;4.20;100.00
39891;BME280;25564;53.312;9.790;2023-02-01T04:30:38;100288.00;;;4.20;100.00
39891;BME280;25564;53.312;9.790;2023-02-01T04:33:09;100272.25;;;4.17;100.00
39891;BME280;25564;53.312;9.790;2023-02-01T04:35:44;100272.28;;;4.15;100.00
39891;BME280;25564;53.312;9.790;2023-02-01T04:38:16;100257.38;;;4.13;100.00
39891;BME280;25564;53.312;9.790;2023-02-01T04:40:48;100250.38;;;4.03;100.00
39891;BME280;25564;53.312;9.790;2023-02-01T04:43:19;100257.38;;;4.10;100.00
39891;BME280;25564;53.312;9.790;2023-02-01T04:45:51;100261.75;;;4.06;100.00
39891;BME280;25564;53.312;9.790;2023-02-01T04:48:23;100266.13;;;4.03;100.00
39891;BME280;25564;53.312;9.790;2023-02-01T04:50:55;100256.50;;;4.02;100.00
39891;BME280;25564;53.312;9.790;2023-02-01T04:53:27;100260.88;;;4.00;100.00
39891;BME280;25564;53.312;9.790;2023-02-01T04:55:58;100246.88;;;3.94;100.00
39891;BME280;25564;53.312;9.790;2023-02-01T04:58:29;100241.63;;;3.94;100.00
39891;BME280;25564;53.312;9.790;2023-02-01T05:01:05;100225.88;;;3.94;100.00
39891;BME280;25564;53.312;9.790;2023-02-01T05:03:37;100204.88;;;3.94;100.00
39891;BME280;25564;53.312;9.790;2023-02-01T05:06:08;100206.63;;;3.99;100.00
39891;BME280;25564;53.312;9.790;2023-02-01T05:08:39;100213.63;;;4.03;100.00
39891;BME280;25564;53.312;9.790;2023-02-01T05:11:11;100188.25;;;3.92;100.00
39891;BME280;25564;53.312;9.790;2023-02-01T05:14:02;100228.50;;;4.04;100.00
39891;BME280;25564;53.312;9.790;2023-02-01T05:16:33;100211.88;;;3.96;100.00
39891;BME280;25564;53.312;9.790;2023-02-01T05:19:05;100224.97;;;3.91;100.00
39891;BME280;25564;53.312;9.790;2023-02-01T05:21:36;100242.50;;;3.95;100.00
39891;BME280;25564;53.312;9.790;2023-02-01T05:24:08;100247.72;;;3.93;100.00
39891;BME280;25564;53.312;9.790;2023-02-01T05:26:50;100255.59;;;3.90;100.00
39891;BME280;25564;53.312;9.790;2023-02-01T05:29:22;100251.22;;;3.91;100.00
39891;BME280;25564;53.312;9.790;2023-02-01T05:31:54;100258.22;;;3.92;100.00
39891;BME280;25564;53.312;9.790;2023-02-01T05:34:25;100252.97;;;3.89;100.00
39891;BME280;25564;53.312;9.790;2023-02-01T05:36:57;100245.97;;;3.88;100.00
39891;BME280;25564;53.312;9.790;2023-02-01T05:39:28;100235.47;;;3.79;100.00
39891;BME280;25564;53.312;9.790;2023-02-01T05:41:59;100226.72;;;3.77;100.00
39891;BME280;25564;53.312;9.790;2023-02-01T05:44:31;100214.44;;;3.74;100.00
39891;BME280;25564;53.312;9.790;2023-02-01T05:47:02;100198.69;;;3.64;100.00
39891;BME280;25564;53.312;9.790;2023-02-01T05:49:34;100232.81;;;3.74;100.00
39891;BME280;25564;53.312;9.790;2023-02-01T05:52:05;100247.69;;;3.74;100.00
39891;BME280;25564;53.312;9.790;2023-02-01T05:54:36;100234.56;;;3.66;100.00
39891;BME280;25564;53.312;9.790;2023-02-01T05:57:09;100254.69;;;3.76;100.00
39891;BME280;25564;53.312;9.790;2023-02-01T05:59:40;100262.56;;;3.79;100.00
39891;BME280;25564;53.312;9.790;2023-02-01T06:02:18;100272.19;;;3.80;100.00
39891;BME280;25564;53.312;9.790;2023-02-01T06:04:50;100265.19;;;3.75;100.00
39891;BME280;25564;53.312;9.790;2023-02-01T06:07:22;100246.81;;;3.70;100.00
39891;BME280;25564;53.312;9.790;2023-02-01T06:09:53;100223.16;;;3.58;100.00
39891;BME280;25564;53.312;9.790;2023-02-01T06:12:24;100222.31;;;3.68;100.00
39891;BME280;25564;53.312;9.790;2023-02-01T06:14:59;100202.19;;;3.66;100.00
39891;BME280;25564;53.312;9.790;2023-02-01T06:17:30;100223.19;;;3.69;100.00
39891;BME280;25564;53.312;9.790;2023-02-01T06:20:02;100226.69;;;3.69;100.00
39891;BME280;25564;53.312;9.790;2023-02-01T06:22:34;100227.56;;;3.67;100.00
39891;BME280;25564;53.312;9.790;2023-02-01T06:25:08;100227.56;;;3.76;100.00
39891;BME280;25564;53.312;9.790;2023-02-01T06:27:40;100231.06;;;3.76;100.00
39891;BME280;25564;53.312;9.790;2023-02-01T06:30:12;100207.44;;;3.66;100.00
39891;BME280;25564;53.312;9.790;2023-02-01T06:32:50;100209.19;;;3.71;100.00
39891;BME280;25564;53.312;9.790;2023-02-01T06:35:24;100234.59;;;3.84;100.00
39891;BME280;25564;53.312;9.790;2023-02-01T06:37:57;100214.47;;;3.79;100.00
39891;BME280;25564;53.312;9.790;2023-02-01T06:40:29;100209.19;;;3.73;100.00
39891;BME280;25564;53.312;9.790;2023-02-01T06:43:00;100224.09;;;3.90;100.00
39891;BME280;25564;53.312;9.790;2023-02-01T06:45:32;100225.84;;;3.93;100.00
39891;BME280;25564;53.312;9.790;2023-02-01T06:48:03;100230.25;;;3.94;100.00
39891;BME280;25564;53.312;9.790;2023-02-01T06:50:34;100226.75;;;3.98;100.00
39891;BME280;25564;53.312;9.790;2023-02-01T06:53:06;100228.50;;;3.99;100.00
39891;BME280;25564;53.312;9.790;2023-02-01T06:55:37;100234.63;;;4.00;100.00
39891;BME280;25564;53.312;9.790;2023-02-01T06:58:09;100235.50;;;4.02;100.00
39891;BME280;25564;53.312;9.790;2023-02-01T07:00:40;100232.00;;;4.03;100.00
39891;BME280;25564;53.312;9.790;2023-02-01T07:03:11;100241.63;;;4.07;100.00
39891;BME280;25564;53.312;9.790;2023-02-01T07:05:43;100250.38;;;4.10;100.00
39891;BME280;25564;53.312;9.790;2023-02-01T07:08:14;100246.00;;;4.15;100.00
39891;BME280;25564;53.312;9.790;2023-02-01T07:10:46;100253.88;;;4.20;100.00
39891;BME280;25564;53.312;9.790;2023-02-01T07:13:17;100257.38;;;4.20;100.00
39891;BME280;25564;53.312;9.790;2023-02-01T07:15:48;100257.38;;;4.19;100.00
39891;BME280;25564;53.312;9.790;2023-02-01T07:18:20;100229.38;;;4.10;100.00
39891;BME280;25564;53.312;9.790;2023-02-01T07:20:51;100266.13;;;4.30;100.00
39891;BME280;25564;53.312;9.790;2023-02-01T07:23:23;100256.50;;;4.35;100.00
39891;BME280;25564;53.312;9.790;2023-02-01T07:25:59;100260.00;;;4.36;100.00
39891;BME280;25564;53.312;9.790;2023-02-01T07:28:33;100259.13;;;4.38;100.00
39891;BME280;25564;53.312;9.790;2023-02-01T07:31:07;100267.00;;;4.35;100.00
39891;BME280;25564;53.312;9.790;2023-02-01T07:33:39;100271.38;;;4.33;100.00
39891;BME280;25564;53.312;9.790;2023-02-01T07:36:12;100269.63;;;4.38;100.00
39891;BME280;25564;53.312;9.790;2023-02-01T07:38:45;100264.38;;;4.44;100.00
39891;BME280;25564;53.312;9.790;2023-02-01T07:41:18;100250.38;;;4.39;100.00
39891;BME280;25564;53.312;9.790;2023-02-01T07:43:52;100266.13;;;4.51;100.00
39891;BME280;25564;53.312;9.790;2023-02-01T07:46:23;100266.13;;;4.54;100.00
39891;BME280;25564;53.312;9.790;2023-02-01T07:48:55;100261.75;;;4.59;100.00
39891;BME280;25564;53.312;9.790;2023-02-01T07:51:26;100265.25;;;4.62;100.00
39891;BME280;25564;53.312;9.790;2023-02-01T07:53:58;100272.25;;;4.66;100.00
39891;BME280;25564;53.312;9.790;2023-02-01T07:56:29;100260.00;;;4.63;100.00
39891;BME280;25564;53.312;9.790;2023-02-01T07:59:00;100264.38;;;4.67;100.00
39891;BME280;25564;53.312;9.790;2023-02-01T08:01:32;100228.47;;;4.48;100.00
39891;BME280;25564;53.312;9.790;2023-02-01T08:04:04;100262.63;;;4.69;100.00
39891;BME280;25564;53.312;9.790;2023-02-01T08:06:35;100279.25;;;4.77;100.00
39891;BME280;25564;53.312;9.790;2023-02-01T08:09:07;100264.34;;;4.78;100.00
39891;BME280;25564;53.312;9.790;2023-02-01T08:11:39;100265.22;;;4.84;100.00
39891;BME280;25564;53.312;9.790;2023-02-01T08:14:10;100266.09;;;4.91;100.00
39891;BME280;25564;53.312;9.790;2023-02-01T08:16:41;100265.22;;;4.95;100.00
39891;BME280;25564;53.312;9.790;2023-02-01T08:19:13;100273.09;;;4.92;100.00
39891;BME280;25564;53.312;9.790;2023-02-01T08:21:44;100273.09;;;4.92;100.00
39891;BME280;25564;53.312;9.790;2023-02-01T08:24:16;100280.97;;;4.97;100.00
39891;BME280;25564;53.312;9.790;2023-02-01T08:26:47;100277.47;;;5.01;100.00
39891;BME280;25564;53.312;9.790;2023-02-01T08:29:18;100262.56;;;4.98;100.00
39891;BME280;25564;53.312;9.790;2023-02-01T08:31:50;100295.84;;;5.11;100.00
39891;BME280;25564;53.312;9.790;2023-02-01T08:34:22;100300.19;;;5.21;100.00
39891;BME280;25564;53.312;9.790;2023-02-01T08:36:53;100305.41;;;5.34;100.00
39891;BME280;25564;53.312;9.790;2023-02-01T08:39:31;100254.63;;;5.16;100.00
39891;BME280;25564;53.312;9.790;2023-02-01T08:42:02;100293.06;;;5.55;100.00
39891;BME280;25564;53.312;9.790;2023-02-01T08:44:52;100278.13;;;5.57;100.00
39891;BME280;25564;53.312;9.790;2023-02-01T08:47:24;100265.91;;;5.47;100.00
39891;BME280;25564;53.312;9.790;2023-02-01T08:49:55;100247.50;;;5.40;100.00
39891;BME280;25564;53.312;9.790;2023-02-01T08:52:26;100273.75;;;5.55;100.00
39891;BME280;25564;53.312;9.790;2023-02-01T08:54:58;100280.72;;;5.67;100.00
39891;BME280;25564;53.312;9.790;2023-02-01T08:57:29;100265.88;;;5.55;100.00
39891;BME280;25564;53.312;9.790;2023-02-01T09:00:04;100290.38;;;5.65;100.00
39891;BME280;25564;53.312;9.790;2023-02-01T09:02:36;100299.16;;;5.68;100.00
39891;BME280;25564;53.312;9.790;2023-02-01T09:05:08;100278.97;;;5.67;100.00
39891;BME280;25564;53.312;9.790;2023-02-01T09:07:39;100278.94;;;5.73;100.00
39891;BME280;25564;53.312;9.790;2023-02-01T09:10:11;100290.28;;;5.84;100.00
39891;BME280;25564;53.312;9.790;2023-02-01T09:12:42;100275.34;;;5.88;100.00
39891;BME280;25564;53.312;9.790;2023-02-01T09:15:14;100271.84;;;5.90;100.00
39891;BME280;25564;53.312;9.790;2023-02-01T09:17:45;100272.72;;;5.93;100.00
39891;BME280;25564;53.312;9.790;2023-02-01T09:20:17;100249.06;;;5.79;100.00
39891;BME280;25564;53.312;9.790;2023-02-01T09:22:51;100262.19;;;5.94;100.00
39891;BME280;25564;53.312;9.790;2023-02-01T09:25:23;100278.84;;;5.99;100.00
39891;BME280;25564;53.312;9.790;2023-02-01T09:27:54;100273.53;;;6.02;100.00
39891;BME280;25564;53.312;9.790;2023-02-01T09:30:26;100271.78;;;6.06;100.00
39891;BME280;25564;53.312;9.790;2023-02-01T09:32:59;100267.41;;;6.02;100.00
39891;BME280;25564;53.312;9.790;2023-02-01T09:35:30;100270.03;;;6.03;100.00
39891;BME280;25564;53.312;9.790;2023-02-01T09:38:02;100267.38;;;6.05;100.00
39891;BME280;25564;53.312;9.790;2023-02-01T09:40:34;100261.22;;;6.07;100.00
39891;BME280;25564;53.312;9.790;2023-02-01T09:46:06;100270.69;;;6.31;100.00
39891;BME280;25564;53.312;9.790;2023-02-01T09:48:42;100267.09;;;6.41;100.00
39891;BME280;25564;53.312;9.790;2023-02-01T09:51:31;100261.81;;;6.43;100.00
39891;BME280;25564;53.312;9.790;2023-02-01T09:54:09;100270.53;;;6.49;100.00
39891;BME280;25564;53.312;9.790;2023-02-01T09:56:49;100273.16;;;6.51;100.00
39891;BME280;25564;53.312;9.790;2023-02-01T09:59:34;100270.56;;;6.45;100.00
39891;BME280;25564;53.312;9.790;2023-02-01T10:02:13;100266.22;;;6.41;100.00
39891;BME280;25564;53.312;9.790;2023-02-01T10:04:47;100269.66;;;6.49;100.00
39891;BME280;25564;53.312;9.790;2023-02-01T10:07:28;100268.84;;;6.42;100.00
39891;BME280;25564;53.312;9.790;2023-02-01T10:10:10;100272.41;;;6.35;100.00
39891;BME280;25564;53.312;9.790;2023-02-01T10:12:58;100267.13;;;6.38;100.00
39891;BME280;25564;53.312;9.790;2023-02-01T10:15:54;100272.41;;;6.35;100.00
39891;BME280;25564;53.312;9.790;2023-02-01T10:18:50;100259.19;;;6.40;100.00
39891;BME280;25564;53.312;9.790;2023-02-01T10:21:51;100265.28;;;6.49;100.00
39891;BME280;25564;53.312;9.790;2023-02-01T10:27:12;100254.72;;;6.49;100.00
39891;BME280;25564;53.312;9.790;2023-02-01T10:29:47;100258.16;;;6.59;100.00
39891;BME280;25564;53.312;9.790;2023-02-01T10:32:27;100245.81;;;6.66;100.00
39891;BME280;25564;53.312;9.790;2023-02-01T10:35:09;100256.31;;;6.69;100.00
39891;BME280;25564;53.312;9.790;2023-02-01T10:37:44;100249.31;;;6.65;100.00
39891;BME280;25564;53.312;9.790;2023-02-01T10:40:24;100258.16;;;6.61;100.00
39891;BME280;25564;53.312;9.790;2023-02-01T10:43:00;100225.72;;;6.51;100.00
39891;BME280;25564;53.312;9.790;2023-02-01T10:45:33;100220.38;;;6.59;100.00
39891;BME280;25564;53.312;9.790;2023-02-01T10:48:05;100225.63;;;6.60;100.00
39891;BME280;25564;53.312;9.790;2023-02-01T10:50:45;100209.00;;;6.55;100.00
39891;BME280;25564;53.312;9.790;2023-02-01T10:53:41;100201.09;;;6.55;100.00
39891;BME280;25564;53.312;9.790;2023-02-01T10:56:14;100208.88;;;6.66;100.00
39891;BME280;25564;53.312;9.790;2023-02-01T10:58:46;100196.50;;;6.74;100.00
39891;BME280;25564;53.312;9.790;2023-02-01T11:01:27;100191.13;;;6.83;100.00
39891;BME280;25564;53.312;9.790;2023-02-01T11:04:01;100185.78;;;6.91;100.00
39891;BME280;25564;53.312;9.790;2023-02-01T11:06:36;100175.22;;;6.92;100.00
39891;BME280;25564;53.312;9.790;2023-02-01T11:14:32;100121.84;;;6.69;100.00
39891;BME280;25564;53.312;9.790;2023-02-01T11:19:46;100158.53;;;6.90;100.00
39891;BME280;25564;53.312;9.790;2023-02-01T11:22:18;100153.38;;;6.79;100.00
39891;BME280;25564;53.312;9.790;2023-02-01T11:24:49;100156.16;;;6.66;100.00
39891;BME280;25564;53.312;9.790;2023-02-01T11:27:22;100153.63;;;6.56;100.00
39891;BME280;25564;53.312;9.790;2023-02-01T11:30:00;100149.22;;;6.55;100.00
39891;BME280;25564;53.312;9.790;2023-02-01T11:32:33;100158.94;;;6.52;100.00
39891;BME280;25564;53.312;9.790;2023-02-01T11:35:06;100150.19;;;6.47;100.00
39891;BME280;25564;53.312;9.790;2023-02-01T11:37:41;100152.84;;;6.45;100.00
39891;BME280;25564;53.312;9.790;2023-02-01T11:42:59;100137.97;;;6.38;100.00
39891;BME280;25564;53.312;9.790;2023-02-01T11:45:32;100134.44;;;6.41;100.00
39891;BME280;25564;53.312;9.790;2023-02-01T11:48:13;100130.94;;;6.39;100.00
39891;BME280;25564;53.312;9.790;2023-02-01T11:56:55;100113.53;;;6.24;100.00
39891;BME280;25564;53.312;9.790;2023-02-01T12:02:49;100127.84;;;5.99;100.00
39891;BME280;25564;53.312;9.790;2023-02-01T12:06:08;100130.59;;;5.77;100.00
39891;BME280;25564;53.312;9.790;2023-02-01T12:14:36;100131.97;;;5.00;100.00
39891;BME280;25564;53.312;9.790;2023-02-01T12:29:29;100136.59;;;4.16;100.00
39891;BME280;25564;53.312;9.790;2023-02-01T12:32:10;100145.38;;;4.07;100.00
39891;BME280;25564;53.312;9.790;2023-02-01T12:35:19;100156.75;;;3.91;100.00
39891;BME280;25564;53.312;9.790;2023-02-01T12:43:51;100169.72;;;3.25;100.00
39891;BME280;25564;53.312;9.790;2023-02-01T12:46:34;100177.50;;;2.92;100.00
39891;BME280;25564;53.312;9.790;2023-02-01T12:49:20;100183.47;;;2.67;100.00
39891;BME280;25564;53.312;9.790;2023-02-01T12:52:03;100110.81;;;2.34;100.00
39891;BME280;25564;53.312;9.790;2023-02-01T12:54:38;100084.66;;;2.38;100.00
39891;BME280;25564;53.312;9.790;2023-02-01T12:57:18;100045.41;;;2.41;100.00
39891;BME280;25564;53.312;9.790;2023-02-01T13:00:48;100071.63;;;2.49;100.00
39891;BME280;25564;53.312;9.790;2023-02-01T13:03:05;100103.91;;;2.46;100.00
39891;BME280;25564;53.312;9.790;2023-02-01T13:05:50;100109.16;;;2.45;100.00
39891;BME280;25564;53.312;9.790;2023-02-01T13:08:25;100125.78;;;2.54;100.00
39891;BME280;25564;53.312;9.790;2023-02-01T13:11:04;100130.19;;;2.60;100.00
39891;BME280;25564;53.312;9.790;2023-02-01T13:13:45;100127.56;;;2.58;100.00
39891;BME280;25564;53.312;9.790;2023-02-01T13:16:25;100130.25;;;2.75;100.00
39891;BME280;25564;53.312;9.790;2023-02-01T13:19:05;100119.88;;;3.01;100.00
39891;BME280;25564;53.312;9.790;2023-02-01T13:21:46;100120.78;;;3.23;100.00
39891;BME280;25564;53.312;9.790;2023-02-01T13:24:44;100124.31;;;3.34;100.00
39891;BME280;25564;53.312;9.790;2023-02-01T13:27:18;100129.56;;;3.43;100.00
39891;BME280;25564;53.312;9.790;2023-02-01T13:41:57;100123.47;;;3.58;100.00
39891;BME280;25564;53.312;9.790;2023-02-01T13:44:42;100115.59;;;3.61;100.00
39891;BME280;25564;53.312;9.790;2023-02-01T13:47:38;100112.97;;;3.64;100.00
39891;BME280;25564;53.312;9.790;2023-02-01T13:52:55;100113.00;;;3.87;100.00
39891;BME280;25564;53.312;9.790;2023-02-01T13:55:33;100115.59;;;4.10;100.00
39891;BME280;25564;53.312;9.790;2023-02-01T14:00:44;100097.13;;;4.43;100.00
39891;BME280;25564;53.312;9.790;2023-02-01T14:03:21;100110.19;;;4.68;100.00
39891;BME280;25564;53.312;9.790;2023-02-01T14:05:55;100106.66;;;4.79;100.00
39891;BME280;25564;53.312;9.790;2023-02-01T14:08:42;100110.19;;;4.71;100.00
39891;BME280;25564;53.312;9.790;2023-02-01T14:19:31;100124.22;;;4.67;100.00
39891;BME280;25564;53.312;9.790;2023-02-01T14:24:56;100114.59;;;4.63;100.00
39891;BME280;25564;53.312;9.790;2023-02-01T14:27:33;100131.19;;;4.77;100.00
39891;BME280;25564;53.312;9.790;2023-02-01T14:30:07;100120.69;;;4.74;100.00
39891;BME280;25564;53.312;9.790;2023-02-01T14:32:45;100151.34;;;4.78;100.00
39891;BME280;25564;53.312;9.790;2023-02-01T14:35:25;100147.84;;;4.77;100.00
39891;BME280;25564;53.312;9.790;2023-02-01T14:38:01;100140.84;;;4.73;100.00
39891;BME280;25564;53.312;9.790;2023-02-01T14:40:35;100154.00;;;4.69;100.00
39891;BME280;25564;53.312;9.790;2023-02-01T14:43:07;100154.91;;;4.57;100.00
39891;BME280;25564;53.312;9.790;2023-02-01T14:45:59;100173.28;;;4.57;100.00
39891;BME280;25564;53.312;9.790;2023-02-01T14:51:03;100204.84;;;4.40;100.00
39891;BME280;25564;53.312;9.790;2023-02-01T14:53:35;100232.88;;;4.11;100.00
39891;BME280;25564;53.312;9.790;2023-02-01T14:56:15;100211.84;;;3.88;100.00
39891;BME280;25564;53.312;9.790;2023-02-01T14:58:52;100199.59;;;3.82;100.00
39891;BME280;25564;53.312;9.790;2023-02-01T15:01:34;100220.56;;;3.70;100.00
39891;BME280;25564;53.312;9.790;2023-02-01T15:04:14;100211.81;;;3.65;100.00
39891;BME280;25564;53.312;9.790;2023-02-01T15:06:54;100198.69;;;3.62;100.00
39891;BME280;25564;53.312;9.790;2023-02-01T15:09:32;100194.31;;;3.64;100.00
39891;BME280;25564;53.312;9.790;2023-02-01T15:12:14;100179.44;;;3.61;100.00
39891;BME280;25564;53.312;9.790;2023-02-01T15:14:48;100174.19;;;3.55;100.00
39891;BME280;25564;53.312;9.790;2023-02-01T15:17:33;100187.31;;;3.63;100.00
39891;BME280;25564;53.312;9.790;2023-02-01T15:20:14;100179.44;;;3.55;100.00
39891;BME280;25564;53.312;9.790;2023-02-01T15:23:03;100176.81;;;3.61;100.00